sensor_id;sensor_type;location;lat;lon;timestamp;P1;durP1;ratioP1;P2;durP2;ratioP2
58697;SDS011;44475;53.206;-6.106;2023-04-02T00:04:03;17.77;;;6.68;;
58697;SDS011;44475;53.206;-6.106;2023-04-02T00:06:38;12.45;;;6.10;;
58697;SDS011;44475;53.206;-6.106;2023-04-02T00:09:16;15.48;;;6.60;;
58697;SDS011;44475;53.206;-6.106;2023-04-02T00:11:52;13.63;;;5.75;;
58697;SDS011;44475;53.206;-6.106;2023-04-02T00:14:32;11.77;;;5.68;;
58697;SDS011;44475;53.206;-6.106;2023-04-02T00:17:01;13.30;;;5.65;;
58697;SDS011;44475;53.206;-6.106;2023-04-02T00:22:00;11.43;;;5.30;;
58697;SDS011;44475;53.206;-6.106;2023-04-02T00:24:30;11.30;;;5.40;;
58697;SDS011;44475;53.206;-6.106;2023-04-02T00:26:58;12.05;;;5.18;;
58697;SDS011;44475;53.206;-6.106;2023-04-02T00:29:24;12.27;;;5.07;;
58697;SDS011;44475;53.206;-6.106;2023-04-02T00:31:51;12.30;;;5.30;;
58697;SDS011;44475;53.206;-6.106;2023-04-02T00:34:20;10.02;;;4.97;;
58697;SDS011;44475;53.206;-6.106;2023-04-02T00:36:50;9.73;;;4.53;;
58697;SDS011;44475;53.206;-6.106;2023-04-02T00:39:18;9.60;;;4.82;;
58697;SDS011;44475;53.206;-6.106;2023-04-02T00:41:54;9.90;;;4.82;;
58697;SDS011;44475;53.206;-6.106;2023-04-02T00:44:31;9.13;;;4.68;;
58697;SDS011;44475;53.206;-6.106;2023-04-02T00:47:23;12.93;;;4.60;;
58697;SDS011;44475;53.206;-6.106;2023-04-02T00:49:56;9.85;;;4.57;;
58697;SDS011;44475;53.206;-6.106;2023-04-02T00:52:29;15.88;;;5.25;;
58697;SDS011;44475;53.206;-6.106;2023-04-02T00:55:00;8.50;;;4.15;;
58697;SDS011;44475;53.206;-6.106;2023-04-02T00:57:45;10.10;;;4.35;;
58697;SDS011;44475;53.206;-6.106;2023-04-02T01:05:40;9.60;;;4.20;;
58697;SDS011;44475;53.206;-6.106;2023-04-02T01:17:00;14.70;;;4.25;;
58697;SDS011;44475;53.206;-6.106;2023-04-02T01:22:43;12.85;;;4.20;;
58697;SDS011;44475;53.206;-6.106;2023-04-02T01:25:40;9.02;;;3.67;;
58697;SDS011;44475;53.206;-6.106;2023-04-02T01:28:25;6.63;;;3.45;;
58697;SDS011;44475;53.206;-6.106;2023-04-02T01:30:59;7.95;;;3.50;;
58697;SDS011;44475;53.206;-6.106;2023-04-02T01:33:28;10.95;;;3.53;;
58697;SDS011;44475;53.206;-6.106;2023-04-02T01:36:03;7.65;;;3.55;;
58697;SDS011;44475;53.206;-6.106;2023-04-02T01:38:46;8.40;;;3.60;;
58697;SDS011;44475;53.206;-6.106;2023-04-02T01:41:37;7.03;;;3.30;;
58697;SDS011;44475;53.206;-6.106;2023-04-02T01:44:12;7.47;;;3.25;;
58697;SDS011;44475;53.206;-6.106;2023-04-02T01:46:53;7.88;;;3.50;;
58697;SDS011;44475;53.206;-6.106;2023-04-02T01:49:22;6.57;;;3.05;;
58697;SDS011;44475;53.206;-6.106;2023-04-02T01:51:50;6.90;;;3.22;;
58697;SDS011;44475;53.206;-6.106;2023-04-02T01:54:21;5.82;;;2.72;;
58697;SDS011;44475;53.206;-6.106;2023-04-02T01:56:50;8.48;;;3.00;;
58697;SDS011;44475;53.206;-6.106;2023-04-02T01:59:18;5.63;;;2.83;;
58697;SDS011;44475;53.206;-6.106;2023-04-02T02:01:51;6.65;;;3.00;;
58697;SDS011;44475;53.206;-6.106;2023-04-02T02:04:25;5.93;;;3.00;;
58697;SDS011;44475;53.206;-6.106;2023-04-02T02:06:52;5.90;;;2.78;;
58697;SDS011;44475;53.206;-6.106;2023-04-02T02:09:24;5.95;;;2.97;;
58697;SDS011;44475;53.206;-6.106;2023-04-02T02:11:57;7.22;;;2.80;;
58697;SDS011;44475;53.206;-6.106;2023-04-02T02:14:26;7.53;;;2.80;;
58697;SDS011;44475;53.206;-6.106;2023-04-02T02:16:55;6.40;;;2.72;;
58697;SDS011;44475;53.206;-6.106;2023-04-02T02:24:34;7.65;;;2.75;;
58697;SDS011;44475;53.206;-6.106;2023-04-02T02:30:05;6.95;;;2.90;;
58697;SDS011;44475;53.206;-6.106;2023-04-02T02:33:24;7.00;;;2.72;;
58697;SDS011;44475;53.206;-6.106;2023-04-02T02:35:58;5.68;;;2.60;;
58697;SDS011;44475;53.206;-6.106;2023-04-02T02:44:13;4.85;;;2.40;;
58697;SDS011;44475;53.206;-6.106;2023-04-02T02:46:48;4.18;;;2.45;;
58697;SDS011;44475;53.206;-6.106;2023-04-02T02:49:38;5.93;;;2.28;;
58697;SDS011;44475;53.206;-6.106;2023-04-02T02:52:15;4.53;;;2.20;;
58697;SDS011;44475;53.206;-6.106;2023-04-02T02:54:59;4.03;;;2.00;;
58697;SDS011;44475;53.206;-6.106;2023-04-02T02:57:43;5.60;;;2.50;;
58697;SDS011;44475;53.206;-6.106;2023-04-02T03:00:19;4.65;;;2.40;;
58697;SDS011;44475;53.206;-6.106;2023-04-02T03:02:49;4.78;;;2.40;;
58697;SDS011;44475;53.206;-6.106;2023-04-02T03:05:20;4.38;;;2.30;;
58697;SDS011;44475;53.206;-6.106;2023-04-02T03:07:52;4.40;;;2.20;;
58697;SDS011;44475;53.206;-6.106;2023-04-02T03:19:01;4.03;;;2.20;;
58697;SDS011;44475;53.206;-6.106;2023-04-02T03:21:50;4.78;;;2.17;;
58697;SDS011;44475;53.206;-6.106;2023-04-02T03:24:30;4.65;;;2.17;;
58697;SDS011;44475;53.206;-6.106;2023-04-02T03:27:20;4.30;;;2.17;;
58697;SDS011;44475;53.206;-6.106;2023-04-02T03:32:45;4.90;;;2.10;;
58697;SDS011;44475;53.206;-6.106;2023-04-02T03:37:47;3.25;;;1.77;;
58697;SDS011;44475;53.206;-6.106;2023-04-02T03:40:21;3.90;;;2.10;;
58697;SDS011;44475;53.206;-6.106;2023-04-02T03:43:01;3.28;;;2.10;;
58697;SDS011;44475;53.206;-6.106;2023-04-02T03:45:38;4.03;;;2.10;;
58697;SDS011;44475;53.206;-6.106;2023-04-02T03:50:46;4.40;;;2.00;;
58697;SDS011;44475;53.206;-6.106;2023-04-02T03:53:22;3.35;;;1.90;;
58697;SDS011;44475;53.206;-6.106;2023-04-02T03:55:50;4.93;;;2.22;;
58697;SDS011;44475;53.206;-6.106;2023-04-02T03:58:20;2.78;;;1.90;;
58697;SDS011;44475;53.206;-6.106;2023-04-02T04:01:07;3.03;;;1.90;;
58697;SDS011;44475;53.206;-6.106;2023-04-02T04:03:50;3.78;;;1.90;;
58697;SDS011;44475;53.206;-6.106;2023-04-02T04:06:30;3.47;;;1.90;;
58697;SDS011;44475;53.206;-6.106;2023-04-02T04:11:38;3.42;;;1.70;;
58697;SDS011;44475;53.206;-6.106;2023-04-02T04:14:30;3.88;;;1.80;;
58697;SDS011;44475;53.206;-6.106;2023-04-02T04:19:49;3.28;;;2.22;;
58697;SDS011;44475;53.206;-6.106;2023-04-02T04:22:32;3.53;;;1.77;;
58697;SDS011;44475;53.206;-6.106;2023-04-02T04:25:25;3.63;;;1.85;;
58697;SDS011;44475;53.206;-6.106;2023-04-02T04:30:49;4.00;;;1.98;;
58697;SDS011;44475;53.206;-6.106;2023-04-02T04:33:27;2.95;;;1.80;;
58697;SDS011;44475;53.206;-6.106;2023-04-02T04:36:05;2.80;;;1.85;;
58697;SDS011;44475;53.206;-6.106;2023-04-02T04:38:47;2.95;;;1.70;;
58697;SDS011;44475;53.206;-6.106;2023-04-02T04:41:22;2.60;;;1.55;;
58697;SDS011;44475;53.206;-6.106;2023-04-02T04:47:01;3.72;;;1.70;;
58697;SDS011;44475;53.206;-6.106;2023-04-02T04:49:35;3.00;;;1.70;;
58697;SDS011;44475;53.206;-6.106;2023-04-02T04:52:13;3.25;;;1.80;;
58697;SDS011;44475;53.206;-6.106;2023-04-02T04:54:45;2.70;;;1.70;;
58697;SDS011;44475;53.206;-6.106;2023-04-02T04:57:21;2.63;;;1.70;;
58697;SDS011;44475;53.206;-6.106;2023-04-02T05:02:46;3.58;;;1.70;;
58697;SDS011;44475;53.206;-6.106;2023-04-02T05:05:19;3.38;;;1.73;;
58697;SDS011;44475;53.206;-6.106;2023-04-02T05:07:59;2.40;;;1.80;;
58697;SDS011;44475;53.206;-6.106;2023-04-02T05:11:02;2.90;;;1.60;;
58697;SDS011;44475;53.206;-6.106;2023-04-02T05:13:55;3.28;;;1.70;;
58697;SDS011;44475;53.206;-6.106;2023-04-02T05:21:46;2.78;;;1.60;;
58697;SDS011;44475;53.206;-6.106;2023-04-02T05:24:43;2.85;;;1.63;;
58697;SDS011;44475;53.206;-6.106;2023-04-02T05:32:49;2.30;;;1.60;;
58697;SDS011;44475;53.206;-6.106;2023-04-02T05:35:29;4.00;;;1.80;;
58697;SDS011;44475;53.206;-6.106;2023-04-02T05:37:58;2.10;;;1.42;;
58697;SDS011;44475;53.206;-6.106;2023-04-02T05:40:37;3.70;;;1.73;;
58697;SDS011;44475;53.206;-6.106;2023-04-02T05:43:08;2.95;;;1.55;;
58697;SDS011;44475;53.206;-6.106;2023-04-02T05:45:42;3.47;;;1.80;;
58697;SDS011;44475;53.206;-6.106;2023-04-02T05:48:16;3.15;;;1.60;;
58697;SDS011;44475;53.206;-6.106;2023-04-02T05:50:55;2.58;;;1.63;;
58697;SDS011;44475;53.206;-6.106;2023-04-02T05:53:28;2.75;;;1.60;;
58697;SDS011;44475;53.206;-6.106;2023-04-02T05:58:56;2.13;;;1.60;;
58697;SDS011;44475;53.206;-6.106;2023-04-02T06:01:41;2.63;;;1.50;;
58697;SDS011;44475;53.206;-6.106;2023-04-02T06:07:10;2.75;;;1.50;;
58697;SDS011;44475;53.206;-6.106;2023-04-02T06:15:17;3.75;;;1.50;;
58697;SDS011;44475;53.206;-6.106;2023-04-02T06:17:48;3.10;;;1.55;;
58697;SDS011;44475;53.206;-6.106;2023-04-02T06:20:18;3.47;;;1.60;;
58697;SDS011;44475;53.206;-6.106;2023-04-02T06:22:55;1.88;;;1.50;;
58697;SDS011;44475;53.206;-6.106;2023-04-02T06:25:23;2.53;;;1.60;;
58697;SDS011;44475;53.206;-6.106;2023-04-02T06:27:57;2.95;;;1.58;;
58697;SDS011;44475;53.206;-6.106;2023-04-02T06:30:32;2.80;;;1.50;;
58697;SDS011;44475;53.206;-6.106;2023-04-02T06:33:03;3.33;;;1.60;;
58697;SDS011;44475;53.206;-6.106;2023-04-02T06:35:33;2.58;;;1.65;;
58697;SDS011;44475;53.206;-6.106;2023-04-02T06:38:03;2.33;;;1.50;;
58697;SDS011;44475;53.206;-6.106;2023-04-02T06:40:41;3.15;;;1.40;;
58697;SDS011;44475;53.206;-6.106;2023-04-02T06:46:27;2.95;;;1.60;;
58697;SDS011;44475;53.206;-6.106;2023-04-02T06:51:55;1.88;;;1.40;;
58697;SDS011;44475;53.206;-6.106;2023-04-02T06:54:25;2.47;;;1.50;;
58697;SDS011;44475;53.206;-6.106;2023-04-02T06:56:56;1.90;;;1.40;;
58697;SDS011;44475;53.206;-6.106;2023-04-02T06:59:26;2.35;;;1.50;;
58697;SDS011;44475;53.206;-6.106;2023-04-02T07:01:58;2.50;;;1.50;;
58697;SDS011;44475;53.206;-6.106;2023-04-02T07:04:29;2.08;;;1.50;;
58697;SDS011;44475;53.206;-6.106;2023-04-02T07:06:56;3.35;;;1.70;;
58697;SDS011;44475;53.206;-6.106;2023-04-02T07:09:25;2.75;;;1.65;;
58697;SDS011;44475;53.206;-6.106;2023-04-02T07:11:54;2.13;;;1.40;;
58697;SDS011;44475;53.206;-6.106;2023-04-02T07:14:20;2.50;;;1.60;;
58697;SDS011;44475;53.206;-6.106;2023-04-02T07:16:47;2.10;;;1.50;;
58697;SDS011;44475;53.206;-6.106;2023-04-02T07:19:15;1.50;;;1.40;;
58697;SDS011;44475;53.206;-6.106;2023-04-02T07:21:43;2.70;;;1.60;;
58697;SDS011;44475;53.206;-6.106;2023-04-02T07:24:11;2.28;;;1.30;;
58697;SDS011;44475;53.206;-6.106;2023-04-02T07:26:37;1.98;;;1.40;;
58697;SDS011;44475;53.206;-6.106;2023-04-02T07:29:05;2.03;;;1.40;;
58697;SDS011;44475;53.206;-6.106;2023-04-02T07:31:33;1.75;;;1.40;;
58697;SDS011;44475;53.206;-6.106;2023-04-02T07:34:03;1.85;;;1.50;;
58697;SDS011;44475;53.206;-6.106;2023-04-02T07:36:30;2.15;;;1.63;;
58697;SDS011;44475;53.206;-6.106;2023-04-02T07:38:57;1.90;;;1.40;;
58697;SDS011;44475;53.206;-6.106;2023-04-02T07:41:23;2.22;;;1.40;;
58697;SDS011;44475;53.206;-6.106;2023-04-02T07:43:50;2.80;;;1.60;;
58697;SDS011;44475;53.206;-6.106;2023-04-02T07:46:17;2.38;;;1.60;;
58697;SDS011;44475;53.206;-6.106;2023-04-02T07:48:44;2.22;;;1.50;;
58697;SDS011;44475;53.206;-6.106;2023-04-02T07:51:13;1.83;;;1.40;;
58697;SDS011;44475;53.206;-6.106;2023-04-02T07:53:47;2.53;;;1.45;;
58697;SDS011;44475;53.206;-6.106;2023-04-02T07:56:19;2.55;;;1.52;;
58697;SDS011;44475;53.206;-6.106;2023-04-02T07:58:46;2.25;;;1.60;;
58697;SDS011;44475;53.206;-6.106;2023-04-02T08:01:14;2.50;;;1.40;;
58697;SDS011;44475;53.206;-6.106;2023-04-02T08:03:42;2.17;;;1.52;;
58697;SDS011;44475;53.206;-6.106;2023-04-02T08:06:09;1.85;;;1.50;;
58697;SDS011;44475;53.206;-6.106;2023-04-02T08:08:36;3.00;;;1.60;;
58697;SDS011;44475;53.206;-6.106;2023-04-02T08:11:03;3.15;;;2.05;;
58697;SDS011;44475;53.206;-6.106;2023-04-02T08:13:29;3.53;;;1.33;;
58697;SDS011;44475;53.206;-6.106;2023-04-02T08:15:59;2.30;;;1.60;;
58697;SDS011;44475;53.206;-6.106;2023-04-02T08:18:26;2.17;;;1.50;;
58697;SDS011;44475;53.206;-6.106;2023-04-02T08:20:53;2.90;;;1.50;;
58697;SDS011;44475;53.206;-6.106;2023-04-02T08:23:20;2.97;;;1.50;;
58697;SDS011;44475;53.206;-6.106;2023-04-02T08:25:46;4.45;;;1.60;;
58697;SDS011;44475;53.206;-6.106;2023-04-02T08:28:14;66.22;;;14.82;;
58697;SDS011;44475;53.206;-6.106;2023-04-02T08:30:40;177.85;;;39.17;;
58697;SDS011;44475;53.206;-6.106;2023-04-02T08:33:07;199.55;;;42.15;;
58697;SDS011;44475;53.206;-6.106;2023-04-02T08:35:33;248.05;;;50.20;;
58697;SDS011;44475;53.206;-6.106;2023-04-02T08:38:00;271.17;;;55.97;;
58697;SDS011;44475;53.206;-6.106;2023-04-02T08:40:33;290.15;;;61.30;;
58697;SDS011;44475;53.206;-6.106;2023-04-02T08:43:17;318.55;;;65.35;;
58697;SDS011;44475;53.206;-6.106;2023-04-02T08:48:46;355.80;;;77.55;;
58697;SDS011;44475;53.206;-6.106;2023-04-02T08:51:26;345.77;;;77.50;;
58697;SDS011;44475;53.206;-6.106;2023-04-02T08:54:01;334.58;;;76.90;;
58697;SDS011;44475;53.206;-6.106;2023-04-02T08:56:50;371.05;;;83.18;;
58697;SDS011;44475;53.206;-6.106;2023-04-02T08:59:31;355.13;;;77.13;;
58697;SDS011;44475;53.206;-6.106;2023-04-02T09:04:55;389.17;;;84.80;;
58697;SDS011;44475;53.206;-6.106;2023-04-02T09:07:22;366.63;;;85.32;;
58697;SDS011;44475;53.206;-6.106;2023-04-02T09:09:50;379.75;;;85.93;;
58697;SDS011;44475;53.206;-6.106;2023-04-02T09:12:18;384.63;;;86.57;;
58697;SDS011;44475;53.206;-6.106;2023-04-02T09:17:25;386.92;;;87.45;;
58697;SDS011;44475;53.206;-6.106;2023-04-02T09:20:01;397.48;;;89.13;;
58697;SDS011;44475;53.206;-6.106;2023-04-02T09:22:50;378.27;;;87.65;;
58697;SDS011;44475;53.206;-6.106;2023-04-02T09:25:18;373.90;;;89.70;;
58697;SDS011;44475;53.206;-6.106;2023-04-02T09:27:48;370.83;;;87.47;;
58697;SDS011;44475;53.206;-6.106;2023-04-02T09:32:58;343.13;;;83.00;;
58697;SDS011;44475;53.206;-6.106;2023-04-02T09:35:30;359.48;;;85.07;;
58697;SDS011;44475;53.206;-6.106;2023-04-02T09:38:17;346.30;;;87.25;;
58697;SDS011;44475;53.206;-6.106;2023-04-02T09:43:42;358.20;;;87.30;;
58697;SDS011;44475;53.206;-6.106;2023-04-02T09:48:44;337.27;;;84.13;;
58697;SDS011;44475;53.206;-6.106;2023-04-02T09:51:24;351.67;;;86.78;;
58697;SDS011;44475;53.206;-6.106;2023-04-02T09:54:14;349.52;;;87.72;;
58697;SDS011;44475;53.206;-6.106;2023-04-02T09:56:45;346.17;;;89.10;;
58697;SDS011;44475;53.206;-6.106;2023-04-02T09:59:25;345.42;;;85.25;;
58697;SDS011;44475;53.206;-6.106;2023-04-02T10:04:38;340.25;;;84.43;;
58697;SDS011;44475;53.206;-6.106;2023-04-02T10:10:48;348.08;;;89.45;;
58697;SDS011;44475;53.206;-6.106;2023-04-02T10:13:03;338.40;;;87.53;;
58697;SDS011;44475;53.206;-6.106;2023-04-02T10:21:18;328.38;;;87.53;;
58697;SDS011;44475;53.206;-6.106;2023-04-02T10:23:49;324.80;;;87.43;;
58697;SDS011;44475;53.206;-6.106;2023-04-02T10:29:09;333.48;;;87.60;;
58697;SDS011;44475;53.206;-6.106;2023-04-02T10:40:18;330.10;;;86.68;;
58697;SDS011;44475;53.206;-6.106;2023-04-02T10:48:03;318.35;;;91.53;;
58697;SDS011;44475;53.206;-6.106;2023-04-02T10:53:46;298.73;;;81.60;;
58697;SDS011;44475;53.206;-6.106;2023-04-02T10:56:21;305.10;;;84.53;;
58697;SDS011;44475;53.206;-6.106;2023-04-02T10:58:59;316.60;;;86.82;;
58697;SDS011;44475;53.206;-6.106;2023-04-02T11:01:51;296.35;;;85.10;;
58697;SDS011;44475;53.206;-6.106;2023-04-02T11:04:26;290.42;;;81.47;;
58697;SDS011;44475;53.206;-6.106;2023-04-02T11:07:07;301.80;;;85.80;;
58697;SDS011;44475;53.206;-6.106;2023-04-02T11:09:42;313.60;;;85.85;;
58697;SDS011;44475;53.206;-6.106;2023-04-02T11:12:17;292.83;;;87.30;;
58697;SDS011;44475;53.206;-6.106;2023-04-02T11:14:48;296.33;;;84.18;;
58697;SDS011;44475;53.206;-6.106;2023-04-02T11:17:16;304.17;;;86.78;;
58697;SDS011;44475;53.206;-6.106;2023-04-02T11:19:43;303.05;;;88.18;;
58697;SDS011;44475;53.206;-6.106;2023-04-02T11:32:43;279.23;;;84.57;;
58697;SDS011;44475;53.206;-6.106;2023-04-02T11:35:25;279.42;;;83.20;;
58697;SDS011;44475;53.206;-6.106;2023-04-02T11:37:56;282.17;;;84.57;;
58697;SDS011;44475;53.206;-6.106;2023-04-02T11:40:45;284.23;;;85.30;;
58697;SDS011;44475;53.206;-6.106;2023-04-02T11:48:43;221.98;;;66.50;;
58697;SDS011;44475;53.206;-6.106;2023-04-02T11:53:46;205.05;;;61.35;;
58697;SDS011;44475;53.206;-6.106;2023-04-02T11:59:02;211.15;;;62.33;;
58697;SDS011;44475;53.206;-6.106;2023-04-02T12:07:05;217.07;;;62.28;;
58697;SDS011;44475;53.206;-6.106;2023-04-02T12:09:48;207.43;;;62.58;;
58697;SDS011;44475;53.206;-6.106;2023-04-02T12:14:55;190.10;;;58.00;;
58697;SDS011;44475;53.206;-6.106;2023-04-02T12:17:29;186.70;;;57.75;;
58697;SDS011;44475;53.206;-6.106;2023-04-02T12:22:38;182.77;;;57.47;;
58697;SDS011;44475;53.206;-6.106;2023-04-02T12:25:32;190.68;;;58.10;;
58697;SDS011;44475;53.206;-6.106;2023-04-02T12:30:44;178.75;;;55.95;;
58697;SDS011;44475;53.206;-6.106;2023-04-02T12:33:13;177.27;;;54.78;;
58697;SDS011;44475;53.206;-6.106;2023-04-02T12:35:54;178.93;;;56.42;;
58697;SDS011;44475;53.206;-6.106;2023-04-02T12:40:54;176.88;;;56.45;;
58697;SDS011;44475;53.206;-6.106;2023-04-02T12:43:25;170.57;;;55.75;;
58697;SDS011;44475;53.206;-6.106;2023-04-02T12:45:53;169.15;;;55.78;;
58697;SDS011;44475;53.206;-6.106;2023-04-02T12:48:21;170.02;;;53.72;;
58697;SDS011;44475;53.206;-6.106;2023-04-02T12:50:49;172.60;;;54.92;;
58697;SDS011;44475;53.206;-6.106;2023-04-02T12:53:17;158.05;;;54.55;;
58697;SDS011;44475;53.206;-6.106;2023-04-02T12:55:46;158.18;;;53.72;;
58697;SDS011;44475;53.206;-6.106;2023-04-02T13:01:09;162.90;;;52.05;;
58697;SDS011;44475;53.206;-6.106;2023-04-02T13:03:42;167.50;;;53.35;;
58697;SDS011;44475;53.206;-6.106;2023-04-02T13:06:23;169.85;;;52.95;;
58697;SDS011;44475;53.206;-6.106;2023-04-02T13:08:51;161.32;;;52.58;;
58697;SDS011;44475;53.206;-6.106;2023-04-02T13:11:18;151.57;;;48.42;;
58697;SDS011;44475;53.206;-6.106;2023-04-02T13:13:46;152.63;;;47.83;;
58697;SDS011;44475;53.206;-6.106;2023-04-02T13:18:44;154.60;;;48.90;;
58697;SDS011;44475;53.206;-6.106;2023-04-02T13:23:43;142.00;;;45.22;;
58697;SDS011;44475;53.206;-6.106;2023-04-02T13:28:57;166.18;;;53.28;;
58697;SDS011;44475;53.206;-6.106;2023-04-02T13:31:30;156.65;;;51.97;;
58697;SDS011;44475;53.206;-6.106;2023-04-02T13:33:57;163.95;;;52.58;;
58697;SDS011;44475;53.206;-6.106;2023-04-02T13:36:24;155.45;;;52.28;;
58697;SDS011;44475;53.206;-6.106;2023-04-02T13:38:53;164.48;;;52.97;;
58697;SDS011;44475;53.206;-6.106;2023-04-02T13:43:55;147.00;;;48.63;;
58697;SDS011;44475;53.206;-6.106;2023-04-02T13:46:25;134.43;;;47.75;;
58697;SDS011;44475;53.206;-6.106;2023-04-02T13:48:53;134.52;;;45.67;;
58697;SDS011;44475;53.206;-6.106;2023-04-02T13:51:25;146.05;;;46.55;;
58697;SDS011;44475;53.206;-6.106;2023-04-02T13:54:00;149.35;;;51.03;;
58697;SDS011;44475;53.206;-6.106;2023-04-02T13:56:27;166.73;;;57.47;;
58697;SDS011;44475;53.206;-6.106;2023-04-02T13:58:54;146.82;;;50.42;;
58697;SDS011;44475;53.206;-6.106;2023-04-02T14:01:20;176.13;;;61.72;;
58697;SDS011;44475;53.206;-6.106;2023-04-02T14:03:50;181.35;;;59.78;;
58697;SDS011;44475;53.206;-6.106;2023-04-02T14:06:22;154.60;;;57.70;;
58697;SDS011;44475;53.206;-6.106;2023-04-02T14:09:07;167.88;;;61.08;;
58697;SDS011;44475;53.206;-6.106;2023-04-02T14:12:16;158.68;;;55.83;;
58697;SDS011;44475;53.206;-6.106;2023-04-02T14:31:38;154.23;;;58.40;;
58697;SDS011;44475;53.206;-6.106;2023-04-02T14:42:34;170.98;;;59.65;;
58697;SDS011;44475;53.206;-6.106;2023-04-02T14:51:33;149.20;;;58.55;;
58697;SDS011;44475;53.206;-6.106;2023-04-02T14:56:57;160.73;;;59.42;;
58697;SDS011;44475;53.206;-6.106;2023-04-02T14:59:51;124.13;;;47.47;;
58697;SDS011;44475;53.206;-6.106;2023-04-02T15:07:38;125.10;;;46.30;;
58697;SDS011;44475;53.206;-6.106;2023-04-02T15:12:40;142.68;;;55.15;;
58697;SDS011;44475;53.206;-6.106;2023-04-02T15:17:53;168.07;;;62.42;;
58697;SDS011;44475;53.206;-6.106;2023-04-02T15:20:23;169.23;;;65.63;;
58697;SDS011;44475;53.206;-6.106;2023-04-02T15:22:55;175.70;;;66.93;;
58697;SDS011;44475;53.206;-6.106;2023-04-02T15:25:53;174.48;;;70.35;;
58697;SDS011;44475;53.206;-6.106;2023-04-02T15:31:19;185.88;;;71.20;;
58697;SDS011;44475;53.206;-6.106;2023-04-02T15:39:28;177.50;;;66.68;;
58697;SDS011;44475;53.206;-6.106;2023-04-02T15:59:10;60.53;;;24.20;;
58697;SDS011;44475;53.206;-6.106;2023-04-02T16:10:34;39.85;;;15.02;;
58697;SDS011;44475;53.206;-6.106;2023-04-02T16:13:12;48.80;;;16.60;;
58697;SDS011;44475;53.206;-6.106;2023-04-02T16:16:04;25.98;;;9.88;;
58697;SDS011;44475;53.206;-6.106;2023-04-02T16:21:36;37.05;;;14.98;;
58697;SDS011;44475;53.206;-6.106;2023-04-02T16:24:18;54.35;;;23.08;;
58697;SDS011;44475;53.206;-6.106;2023-04-02T16:29:33;70.35;;;27.45;;
58697;SDS011;44475;53.206;-6.106;2023-04-02T16:37:39;165.98;;;60.08;;
58697;SDS011;44475;53.206;-6.106;2023-04-02T16:46:08;171.10;;;58.33;;
58697;SDS011;44475;53.206;-6.106;2023-04-02T17:06:20;77.88;;;28.92;;
58697;SDS011;44475;53.206;-6.106;2023-04-02T17:09:02;128.50;;;46.05;;
58697;SDS011;44475;53.206;-6.106;2023-04-02T17:11:39;139.65;;;48.67;;
58697;SDS011;44475;53.206;-6.106;2023-04-02T17:17:01;211.83;;;72.57;;
58697;SDS011;44475;53.206;-6.106;2023-04-02T17:19:28;225.85;;;81.10;;
58697;SDS011;44475;53.206;-6.106;2023-04-02T17:21:56;230.43;;;82.63;;
58697;SDS011;44475;53.206;-6.106;2023-04-02T17:24:27;221.23;;;79.88;;
58697;SDS011;44475;53.206;-6.106;2023-04-02T17:27:04;256.52;;;89.40;;
58697;SDS011;44475;53.206;-6.106;2023-04-02T17:29:42;256.73;;;87.88;;
58697;SDS011;44475;53.206;-6.106;2023-04-02T17:32:23;245.23;;;87.13;;
58697;SDS011;44475;53.206;-6.106;2023-04-02T17:34:54;232.85;;;90.03;;
58697;SDS011;44475;53.206;-6.106;2023-04-02T17:37:34;235.85;;;87.55;;
58697;SDS011;44475;53.206;-6.106;2023-04-02T17:40:22;237.52;;;90.35;;
58697;SDS011;44475;53.206;-6.106;2023-04-02T17:45:49;251.23;;;92.95;;
58697;SDS011;44475;53.206;-6.106;2023-04-02T17:53:46;240.95;;;92.50;;
58697;SDS011;44475;53.206;-6.106;2023-04-02T17:56:39;242.40;;;95.20;;
58697;SDS011;44475;53.206;-6.106;2023-04-02T18:08:15;181.68;;;67.20;;
58697;SDS011;44475;53.206;-6.106;2023-04-02T18:21:38;225.70;;;86.50;;
58697;SDS011;44475;53.206;-6.106;2023-04-02T18:29:47;226.43;;;84.80;;
58697;SDS011;44475;53.206;-6.106;2023-04-02T18:38:15;234.18;;;90.72;;
58697;SDS011;44475;53.206;-6.106;2023-04-02T18:41:01;237.88;;;91.38;;
58697;SDS011;44475;53.206;-6.106;2023-04-02T18:48:56;251.90;;;93.20;;
58697;SDS011;44475;53.206;-6.106;2023-04-02T18:51:35;236.93;;;92.75;;
58697;SDS011;44475;53.206;-6.106;2023-04-02T18:54:09;226.85;;;88.75;;
58697;SDS011;44475;53.206;-6.106;2023-04-02T18:56:38;233.50;;;91.07;;
58697;SDS011;44475;53.206;-6.106;2023-04-02T19:01:52;255.50;;;95.45;;
58697;SDS011;44475;53.206;-6.106;2023-04-02T19:04:24;261.17;;;94.07;;
58697;SDS011;44475;53.206;-6.106;2023-04-02T19:06:55;228.98;;;91.55;;
58697;SDS011;44475;53.206;-6.106;2023-04-02T19:09:35;249.07;;;96.60;;
58697;SDS011;44475;53.206;-6.106;2023-04-02T19:12:17;247.55;;;94.53;;
58697;SDS011;44475;53.206;-6.106;2023-04-02T19:14:46;237.23;;;89.90;;
58697;SDS011;44475;53.206;-6.106;2023-04-02T19:17:20;230.73;;;91.22;;
58697;SDS011;44475;53.206;-6.106;2023-04-02T19:19:58;251.88;;;91.60;;
58697;SDS011;44475;53.206;-6.106;2023-04-02T19:23:14;223.80;;;86.75;;
58697;SDS011;44475;53.206;-6.106;2023-04-02T19:25:56;226.23;;;89.60;;
58697;SDS011;44475;53.206;-6.106;2023-04-02T19:28:46;222.75;;;89.38;;
58697;SDS011;44475;53.206;-6.106;2023-04-02T19:31:44;205.55;;;79.93;;
58697;SDS011;44475;53.206;-6.106;2023-04-02T19:45:03;163.02;;;56.90;;
58697;SDS011;44475;53.206;-6.106;2023-04-02T19:47:42;146.80;;;54.45;;
58697;SDS011;44475;53.206;-6.106;2023-04-02T19:50:08;145.00;;;54.28;;
58697;SDS011;44475;53.206;-6.106;2023-04-02T19:52:35;119.70;;;44.10;;
58697;SDS011;44475;53.206;-6.106;2023-04-02T19:55:01;70.47;;;26.48;;
58697;SDS011;44475;53.206;-6.106;2023-04-02T19:57:28;61.78;;;23.65;;
58697;SDS011;44475;53.206;-6.106;2023-04-02T19:59:54;70.80;;;24.98;;
58697;SDS011;44475;53.206;-6.106;2023-04-02T20:02:20;72.30;;;29.48;;
58697;SDS011;44475;53.206;-6.106;2023-04-02T20:04:47;82.15;;;32.47;;
58697;SDS011;44475;53.206;-6.106;2023-04-02T20:07:13;87.22;;;33.53;;
58697;SDS011;44475;53.206;-6.106;2023-04-02T20:09:40;93.25;;;33.67;;
58697;SDS011;44475;53.206;-6.106;2023-04-02T20:12:06;89.60;;;33.35;;
58697;SDS011;44475;53.206;-6.106;2023-04-02T20:14:33;97.50;;;34.28;;
58697;SDS011;44475;53.206;-6.106;2023-04-02T20:16:59;92.03;;;35.38;;
58697;SDS011;44475;53.206;-6.106;2023-04-02T20:19:26;82.47;;;34.05;;
58697;SDS011;44475;53.206;-6.106;2023-04-02T20:21:52;80.07;;;33.58;;
58697;SDS011;44475;53.206;-6.106;2023-04-02T20:24:18;80.60;;;33.60;;
58697;SDS011;44475;53.206;-6.106;2023-04-02T20:26:45;98.25;;;34.83;;
58697;SDS011;44475;53.206;-6.106;2023-04-02T20:29:11;78.30;;;33.25;;
58697;SDS011;44475;53.206;-6.106;2023-04-02T20:31:37;80.47;;;33.33;;
58697;SDS011;44475;53.206;-6.106;2023-04-02T20:34:03;77.53;;;31.45;;
58697;SDS011;44475;53.206;-6.106;2023-04-02T20:36:32;82.63;;;30.67;;
58697;SDS011;44475;53.206;-6.106;2023-04-02T20:38:59;90.63;;;33.60;;
58697;SDS011;44475;53.206;-6.106;2023-04-02T20:41:25;77.90;;;30.08;;
58697;SDS011;44475;53.206;-6.106;2023-04-02T20:43:51;80.25;;;31.38;;
58697;SDS011;44475;53.206;-6.106;2023-04-02T20:46:18;81.93;;;30.77;;
58697;SDS011;44475;53.206;-6.106;2023-04-02T20:48:45;75.00;;;30.02;;
58697;SDS011;44475;53.206;-6.106;2023-04-02T20:51:12;68.47;;;28.00;;
58697;SDS011;44475;53.206;-6.106;2023-04-02T20:53:39;79.32;;;29.35;;
58697;SDS011;44475;53.206;-6.106;2023-04-02T20:56:09;73.47;;;27.15;;
58697;SDS011;44475;53.206;-6.106;2023-04-02T20:58:38;71.45;;;27.05;;
58697;SDS011;44475;53.206;-6.106;2023-04-02T21:01:15;72.93;;;27.27;;